createdAt,value
2023-03-12T00:02:28.596Z,101122.06
2023-03-12T00:04:57.302Z,101122.06
2023-03-12T00:07:25.412Z,101125.72
2023-03-12T00:09:53.350Z,101121.59
2023-03-12T00:12:21.253Z,101121.50
2023-03-12T00:14:49.156Z,101126.16
2023-03-12T00:17:17.037Z,101127.16
2023-03-12T00:19:46.431Z,101125.06
2023-03-12T00:22:16.774Z,101130.56
2023-03-12T00:24:44.706Z,101127.09
2023-03-12T00:27:12.632Z,101128.75
2023-03-12T00:29:40.517Z,101129.81
2023-03-12T00:32:09.323Z,101127.03
2023-03-12T00:34:37.221Z,101126.28
2023-03-12T00:37:08.070Z,101127.59
2023-03-12T00:39:36.386Z,101125.53
2023-03-12T00:42:04.529Z,101122.47
2023-03-12T00:44:32.435Z,101124.84
2023-03-12T00:47:00.382Z,101122.19
2023-03-12T00:49:28.326Z,101125.69
2023-03-12T00:51:56.335Z,101120.72
2023-03-12T00:54:25.620Z,101119.69
2023-03-12T00:56:53.547Z,101114.78
2023-03-12T00:59:21.564Z,101113.25
2023-03-12T01:01:49.516Z,101120.63
2023-03-12T01:04:18.158Z,101132.81
2023-03-12T01:06:46.194Z,101132.19
2023-03-12T01:09:14.256Z,101133.94
2023-03-12T01:11:43.568Z,101133.06
2023-03-12T01:14:11.644Z,101135.59
2023-03-12T01:16:39.638Z,101131.25
2023-03-12T01:19:07.620Z,101139.75
2023-03-12T01:21:35.498Z,101143.19
2023-03-12T01:24:03.451Z,101141.72
2023-03-12T01:26:31.426Z,101151.47
2023-03-12T01:29:00.710Z,101141.69
2023-03-12T01:31:28.623Z,101140.06
2023-03-12T01:33:56.581Z,101143.78
2023-03-12T01:36:26.029Z,101151.06
2023-03-12T01:38:55.035Z,101154.63
2023-03-12T01:41:23.976Z,101158.66
2023-03-12T01:43:52.363Z,101155.72
2023-03-12T01:46:27.935Z,101163.44
2023-03-12T01:48:59.056Z,101157.38
2023-03-12T01:51:28.739Z,101168.03
2023-03-12T01:54:00.479Z,101167.91
2023-03-12T01:56:29.980Z,101165.47
2023-03-12T01:59:00.558Z,101169.59
2023-03-12T02:01:30.736Z,101161.47
2023-03-12T02:04:01.227Z,101162.22
2023-03-12T02:06:34.539Z,101165.94
2023-03-12T02:09:03.537Z,101163.16
2023-03-12T02:11:31.573Z,101170.84
2023-03-12T02:13:59.483Z,101163.66
2023-03-12T02:16:29.124Z,101167.78
2023-03-12T02:18:58.625Z,101167.88
2023-03-12T02:21:27.886Z,101163.53
2023-03-12T02:24:01.612Z,101167.88
2023-03-12T02:26:31.676Z,101170.53
2023-03-12T02:29:01.052Z,101168.59
2023-03-12T02:31:33.244Z,101166.88
2023-03-12T02:34:01.726Z,101164.16
2023-03-12T02:36:29.677Z,101168.44
2023-03-12T02:38:57.905Z,101163.22
2023-03-12T02:41:28.203Z,101169.53
2023-03-12T02:44:02.726Z,101167.69
2023-03-12T02:46:31.942Z,101163.56
2023-03-12T02:49:00.109Z,101167.13
2023-03-12T02:51:28.120Z,101163.47
2023-03-12T02:53:56.014Z,101168.44
2023-03-12T02:56:24.402Z,101161.19
2023-03-12T02:58:52.405Z,101166.91
2023-03-12T03:01:22.014Z,101163.28
2023-03-12T03:03:50.120Z,101169.03
2023-03-12T03:06:18.487Z,101162.81
2023-03-12T03:08:46.482Z,101160.16
2023-03-12T03:11:14.580Z,101157.78
2023-03-12T03:13:42.481Z,101163.69
2023-03-12T03:16:12.312Z,101157.25
2023-03-12T03:18:42.182Z,101159.03
2023-03-12T03:21:11.024Z,101149.97
2023-03-12T03:23:38.951Z,101154.66
2023-03-12T03:26:06.864Z,101148.03
2023-03-12T03:28:34.798Z,101153.25
2023-03-12T03:31:02.945Z,101141.03
2023-03-12T03:33:31.990Z,101137.84
2023-03-12T03:36:02.324Z,101134.72
2023-03-12T03:38:33.720Z,101139.31
2023-03-12T03:41:01.869Z,101138.38
2023-03-12T03:43:29.971Z,101140.00
2023-03-12T03:45:58.670Z,101139.88
2023-03-12T03:48:26.673Z,101124.59
2023-03-12T03:50:54.752Z,101129.88
2023-03-12T03:53:24.035Z,101136.88
2023-03-12T03:55:51.954Z,101137.91
2023-03-12T03:58:19.872Z,101132.31
2023-03-12T04:00:47.849Z,101135.31
2023-03-12T04:03:15.816Z,101135.16
2023-03-12T04:05:45.329Z,101141.69
2023-03-12T04:08:14.226Z,101137.81
2023-03-12T04:10:43.527Z,101146.06
2023-03-12T04:13:11.429Z,101139.13
2023-03-12T04:15:39.385Z,101138.56
2023-03-12T04:18:07.354Z,101136.19
2023-03-12T04:20:35.290Z,101125.75
2023-03-12T04:23:03.179Z,101128.03
2023-03-12T04:25:31.712Z,101130.47
2023-03-12T04:28:01.331Z,101128.13
2023-03-12T04:30:29.276Z,101125.66
2023-03-12T04:32:57.269Z,101128.00
2023-03-12T04:35:25.623Z,101127.25
2023-03-12T04:37:53.588Z,101120.16
2023-03-12T04:40:21.855Z,101112.16
2023-03-12T04:42:49.813Z,101120.22
2023-03-12T04:45:19.346Z,101109.91
2023-03-12T04:47:47.233Z,101108.78
2023-03-12T04:50:15.349Z,101097.06
2023-03-12T04:52:43.260Z,101110.25
2023-03-12T04:55:11.439Z,101102.03
2023-03-12T04:57:39.373Z,101099.44
2023-03-12T05:00:13.297Z,101103.44
2023-03-12T05:02:42.910Z,101099.06
2023-03-12T05:05:12.581Z,101108.00
2023-03-12T05:07:40.477Z,101104.38
2023-03-12T05:10:09.340Z,101100.84
2023-03-12T05:12:37.213Z,101100.06
2023-03-12T05:15:05.685Z,101100.75
2023-03-12T05:17:33.667Z,101091.88
2023-03-12T05:20:03.362Z,101094.91
2023-03-12T05:22:31.262Z,101095.41
2023-03-12T05:24:59.230Z,101084.75
2023-03-12T05:27:27.152Z,101093.47
2023-03-12T05:29:55.166Z,101095.84
2023-03-12T05:32:23.183Z,101094.31
2023-03-12T05:34:51.202Z,101083.09
2023-03-12T05:37:20.523Z,101087.19
2023-03-12T05:39:48.519Z,101080.94
2023-03-12T05:42:16.895Z,101075.38
2023-03-12T05:44:44.779Z,101076.75
2023-03-12T05:47:12.722Z,101081.81
2023-03-12T05:49:40.589Z,101074.28
2023-03-12T05:52:08.637Z,101073.75
2023-03-12T05:54:38.004Z,101061.16
2023-03-12T05:57:06.192Z,101064.28
2023-03-12T05:59:34.125Z,101064.84
2023-03-12T06:02:02.115Z,101051.97
2023-03-12T06:04:30.511Z,101054.25
2023-03-12T06:06:58.409Z,101054.50
2023-03-12T06:09:26.376Z,101054.91
2023-03-12T06:11:55.648Z,101052.09
2023-03-12T06:14:23.564Z,101053.06
2023-03-12T06:16:51.552Z,101056.56
2023-03-12T06:19:19.464Z,101061.88
2023-03-12T06:21:47.360Z,101068.38
2023-03-12T06:24:15.345Z,101062.41
2023-03-12T06:26:43.360Z,101057.97
2023-03-12T06:29:12.651Z,101058.00
2023-03-12T06:31:42.212Z,101057.84
2023-03-12T06:34:11.248Z,101059.03
2023-03-12T06:36:39.312Z,101067.63
2023-03-12T06:39:08.776Z,101056.28
2023-03-12T06:41:37.131Z,101055.38
2023-03-12T06:44:06.526Z,101055.31
2023-03-12T06:46:37.088Z,101056.66
2023-03-12T06:49:05.673Z,101056.13
2023-03-12T06:51:33.581Z,101051.66
2023-03-12T06:54:02.664Z,101040.41
2023-03-12T06:56:31.082Z,101052.53
2023-03-12T06:58:59.001Z,101050.97
2023-03-12T07:01:27.338Z,101049.13
2023-03-12T07:03:56.625Z,101052.66
2023-03-12T07:06:25.508Z,101056.91
2023-03-12T07:08:53.737Z,101049.38
2023-03-12T07:11:21.663Z,101054.78
2023-03-12T07:13:49.601Z,101057.19
2023-03-12T07:16:17.540Z,101044.63
2023-03-12T07:18:45.464Z,101057.50
2023-03-12T07:21:16.651Z,101056.38
2023-03-12T07:23:44.615Z,101055.94
2023-03-12T07:26:12.504Z,101045.06
2023-03-12T07:28:40.403Z,101043.53
2023-03-12T07:31:08.442Z,101043.72
2023-03-12T07:33:36.559Z,101042.88
2023-03-12T07:36:05.200Z,101039.38
2023-03-12T07:38:34.578Z,101046.53
2023-03-12T07:41:02.509Z,101037.81
2023-03-12T07:43:30.557Z,101038.34
2023-03-12T07:45:58.544Z,101029.69
2023-03-12T07:48:26.480Z,101025.63
2023-03-12T07:50:54.474Z,101028.78
2023-03-12T07:53:22.842Z,101017.00
2023-03-12T07:55:52.495Z,101022.19
2023-03-12T07:58:20.504Z,101020.22
2023-03-12T08:00:49.045Z,101015.81
2023-03-12T08:03:17.661Z,101021.34
2023-03-12T08:05:45.832Z,101001.41
2023-03-12T08:08:13.860Z,101008.94
2023-03-12T08:10:41.924Z,101009.16
2023-03-12T08:13:11.290Z,100997.75
2023-03-12T08:15:39.196Z,100990.09
2023-03-12T08:18:07.231Z,100983.84
2023-03-12T08:20:35.292Z,100978.03
2023-03-12T08:23:03.281Z,100968.28
2023-03-12T08:25:31.212Z,100965.34
2023-03-12T08:27:59.206Z,100951.31
2023-03-12T08:30:30.202Z,100951.13
2023-03-12T08:32:58.697Z,100942.56
2023-03-12T08:35:26.674Z,100942.44
2023-03-12T08:37:54.619Z,100944.72
2023-03-12T08:40:22.555Z,100941.00
2023-03-12T08:42:50.481Z,100934.72
2023-03-12T08:45:18.489Z,100927.81
2023-03-12T08:47:47.835Z,100931.91
2023-03-12T08:50:16.624Z,100913.84
2023-03-12T08:52:45.017Z,100899.94
2023-03-12T08:55:13.150Z,100895.66
2023-03-12T08:57:42.292Z,100897.28
2023-03-12T09:00:15.116Z,100884.44
2023-03-12T09:02:45.021Z,100881.69
2023-03-12T09:05:14.672Z,100861.59
2023-03-12T09:07:42.886Z,100851.69
2023-03-12T09:10:11.683Z,100853.44
2023-03-12T09:12:39.607Z,100858.00
2023-03-12T09:15:09.124Z,100838.72
2023-03-12T09:17:37.617Z,100821.66
2023-03-12T09:20:08.406Z,100816.38
2023-03-12T09:22:38.092Z,100807.63
2023-03-12T09:25:06.884Z,100811.28
2023-03-12T09:27:37.723Z,100808.88
2023-03-12T09:30:07.786Z,100795.13
2023-03-12T09:32:35.799Z,100783.50
2023-03-12T09:35:03.936Z,100767.47
2023-03-12T09:37:32.680Z,100771.09
2023-03-12T09:40:02.184Z,100764.13
2023-03-12T09:42:41.563Z,100760.59
2023-03-12T09:45:12.747Z,100773.16
2023-03-12T09:47:47.074Z,100757.34
2023-03-12T09:50:26.033Z,100749.06
2023-03-12T09:52:59.947Z,100740.44
2023-03-12T09:55:30.418Z,100728.00
2023-03-12T09:57:59.363Z,100718.00
2023-03-12T10:00:32.066Z,100696.91
2023-03-12T10:03:24.644Z,100682.47
2023-03-12T10:06:04.121Z,100669.47
2023-03-12T10:08:40.442Z,100658.06
2023-03-12T10:11:19.721Z,100656.25
2023-03-12T10:13:55.471Z,100633.41
2023-03-12T10:16:35.437Z,100632.09
2023-03-12T10:19:22.233Z,100634.03
2023-03-12T10:21:53.499Z,100625.31
2023-03-12T10:24:32.355Z,100626.22
2023-03-12T10:27:01.995Z,100629.09
2023-03-12T10:29:31.888Z,100612.38
2023-03-12T10:32:03.127Z,100603.06
2023-03-12T10:34:37.689Z,100605.34
2023-03-12T10:37:14.286Z,100597.50
2023-03-12T10:39:42.397Z,100584.75
2023-03-12T10:42:17.633Z,100583.88
2023-03-12T10:44:47.254Z,100585.28
2023-03-12T10:47:27.087Z,100585.16
2023-03-12T10:49:55.096Z,100579.78
2023-03-12T10:52:24.209Z,100569.38
2023-03-12T10:54:53.899Z,100567.56
2023-03-12T10:57:24.011Z,100551.66
2023-03-12T10:59:51.956Z,100549.94
2023-03-12T11:02:35.243Z,100552.28
2023-03-12T11:05:04.387Z,100547.22
2023-03-12T11:07:33.010Z,100541.56
2023-03-12T11:10:21.002Z,100561.53
2023-03-12T11:13:02.827Z,100554.94
2023-03-12T11:15:39.185Z,100555.06
2023-03-12T11:18:21.559Z,100569.66
2023-03-12T11:20:50.269Z,100566.97
2023-03-12T11:23:19.560Z,100560.66
2023-03-12T11:25:53.930Z,100547.72
2023-03-12T11:28:26.138Z,100539.00
2023-03-12T11:30:55.301Z,100540.28
2023-03-12T11:33:23.181Z,100547.72
2023-03-12T11:36:04.388Z,100543.94
2023-03-12T11:38:36.301Z,100543.09
2023-03-12T11:41:17.481Z,100559.34
2023-03-12T11:43:58.256Z,100562.59
2023-03-12T11:46:39.130Z,100557.34
2023-03-12T11:49:15.924Z,100552.00
2023-03-12T11:51:48.832Z,100551.63
2023-03-12T11:54:40.044Z,100544.22
2023-03-12T11:57:11.373Z,100539.94
2023-03-12T11:59:48.005Z,100545.00
2023-03-12T12:02:27.910Z,100533.31
2023-03-12T12:05:28.926Z,100541.72
2023-03-12T12:08:08.457Z,100542.72
2023-03-12T12:10:42.489Z,100543.94
2023-03-12T12:13:16.427Z,100548.34
2023-03-12T12:15:54.251Z,100540.19
2023-03-12T12:18:32.965Z,100533.56
2023-03-12T12:21:06.121Z,100524.59
2023-03-12T12:23:44.214Z,100524.53
2023-03-12T12:26:14.120Z,100519.53
2023-03-12T12:29:06.101Z,100527.22
2023-03-12T12:31:41.307Z,100509.69
2023-03-12T12:34:38.013Z,100512.38
2023-03-12T12:37:21.628Z,100509.25
2023-03-12T12:39:54.465Z,100496.91
2023-03-12T12:42:26.021Z,100502.72
2023-03-12T12:44:55.195Z,100500.78
2023-03-12T12:47:33.256Z,100494.44
2023-03-12T12:50:01.627Z,100488.47
2023-03-12T12:52:29.974Z,100481.47
2023-03-12T12:55:03.466Z,100476.81
2023-03-12T12:57:37.513Z,100470.13
2023-03-12T13:00:16.469Z,100469.66
2023-03-12T13:02:47.986Z,100483.06
2023-03-12T13:05:21.894Z,100470.41
2023-03-12T13:07:50.013Z,100474.44
2023-03-12T13:10:53.007Z,100469.16
2023-03-12T13:13:27.400Z,100477.88
2023-03-12T13:16:19.325Z,100461.25
2023-03-12T13:18:59.002Z,100459.91
2023-03-12T13:21:31.416Z,100457.53
2023-03-12T13:24:10.772Z,100456.88
2023-03-12T13:26:50.483Z,100462.47
2023-03-12T13:29:24.557Z,100473.88
2023-03-12T13:31:52.498Z,100462.88
2023-03-12T13:34:47.769Z,100451.47
2023-03-12T13:38:00.104Z,100453.50
2023-03-12T13:40:55.947Z,100463.88
2023-03-12T13:43:49.915Z,100459.16
2023-03-12T13:46:38.153Z,100465.28
2023-03-12T13:49:12.388Z,100460.63
2023-03-12T13:52:00.855Z,100458.47
2023-03-12T13:54:34.832Z,100457.84
2023-03-12T13:57:05.169Z,100461.78
2023-03-12T13:59:33.586Z,100460.78
2023-03-12T14:02:06.337Z,100465.09
2023-03-12T14:04:39.458Z,100459.63
2023-03-12T14:07:24.725Z,100452.13
2023-03-12T14:09:58.408Z,100444.22
2023-03-12T14:12:31.897Z,100447.78
2023-03-12T14:15:08.275Z,100449.38
2023-03-12T14:17:37.741Z,100448.41
2023-03-12T14:20:13.198Z,100454.50
2023-03-12T14:22:44.995Z,100461.59
2023-03-12T14:25:16.021Z,100468.84
2023-03-12T14:27:47.153Z,100476.66
2023-03-12T14:30:22.946Z,100467.38
2023-03-12T14:32:54.036Z,100470.81
2023-03-12T14:35:23.845Z,100470.41
2023-03-12T14:37:58.528Z,100469.50
2023-03-12T14:40:31.781Z,100464.41
2023-03-12T14:43:01.276Z,100454.69
2023-03-12T14:45:30.102Z,100451.16
2023-03-12T14:47:59.279Z,100456.66
2023-03-12T14:50:29.128Z,100461.97
2023-03-12T14:53:13.560Z,100466.63
2023-03-12T14:55:42.064Z,100470.44
2023-03-12T14:58:17.849Z,100468.16
2023-03-12T15:00:47.031Z,100481.00
2023-03-12T15:03:17.171Z,100506.88
2023-03-12T15:05:47.362Z,100500.13
2023-03-12T15:08:17.856Z,100490.38
2023-03-12T15:10:49.187Z,100492.44
2023-03-12T15:13:18.213Z,100502.38
2023-03-12T15:15:49.648Z,100493.00
2023-03-12T15:18:20.171Z,100484.53
2023-03-12T15:20:48.824Z,100488.66
2023-03-12T15:23:19.846Z,100490.91
2023-03-12T15:25:47.889Z,100498.09
2023-03-12T15:28:29.354Z,100498.44
2023-03-12T15:31:13.891Z,100486.63
2023-03-12T15:33:42.805Z,100483.50
2023-03-12T15:36:27.227Z,100490.25
2023-03-12T15:39:00.327Z,100490.56
2023-03-12T15:41:29.835Z,100487.13
2023-03-12T15:43:59.805Z,100499.00
2023-03-12T15:46:28.862Z,100497.91
2023-03-12T15:48:58.277Z,100496.25
2023-03-12T15:51:34.463Z,100497.72
2023-03-12T15:54:05.802Z,100497.72
2023-03-12T15:56:35.922Z,100500.22
2023-03-12T15:59:06.821Z,100496.97
2023-03-12T16:01:46.264Z,100498.66
2023-03-12T16:04:14.482Z,100508.41
2023-03-12T16:06:44.288Z,100500.28
2023-03-12T16:09:16.939Z,100506.25
2023-03-12T16:11:45.268Z,100513.25
2023-03-12T16:14:17.744Z,100509.00
2023-03-12T16:16:46.138Z,100508.72
2023-03-12T16:19:15.160Z,100517.72
2023-03-12T16:21:44.912Z,100513.72
2023-03-12T16:24:16.492Z,100522.44
2023-03-12T16:26:48.424Z,100526.03
2023-03-12T16:29:18.133Z,100528.81
2023-03-12T16:31:46.169Z,100526.31
2023-03-12T16:34:14.314Z,100524.41
2023-03-12T16:36:42.241Z,100526.16
2023-03-12T16:39:10.160Z,100535.34
2023-03-12T16:41:39.874Z,100528.53
2023-03-12T16:44:08.579Z,100528.97
2023-03-12T16:46:36.608Z,100532.22
2023-03-12T16:49:04.900Z,100540.56
2023-03-12T16:51:32.817Z,100539.50
2023-03-12T16:54:09.783Z,100547.34
2023-03-12T16:56:42.712Z,100547.94
2023-03-12T16:59:17.738Z,100547.47
2023-03-12T17:01:45.738Z,100552.00
2023-03-12T17:04:13.664Z,100556.88
2023-03-12T17:06:41.652Z,100563.88
2023-03-12T17:09:09.661Z,100572.66
2023-03-12T17:11:39.528Z,100570.56
2023-03-12T17:14:17.121Z,100568.34
2023-03-12T17:16:45.375Z,100580.03
2023-03-12T17:19:13.374Z,100581.50
2023-03-12T17:21:41.569Z,100576.16
2023-03-12T17:24:11.182Z,100580.38
2023-03-12T17:26:39.150Z,100573.09
2023-03-12T17:29:07.164Z,100577.63
2023-03-12T17:31:37.595Z,100582.03
2023-03-12T17:34:05.786Z,100574.16
2023-03-12T17:36:37.198Z,100581.56
2023-03-12T17:39:05.658Z,100591.88
2023-03-12T17:41:33.860Z,100595.78
2023-03-12T17:44:03.770Z,100596.47
2023-03-12T17:46:32.319Z,100600.88
2023-03-12T17:49:02.126Z,100610.91
2023-03-12T17:51:30.037Z,100618.00
2023-03-12T17:53:57.937Z,100618.19
2023-03-12T17:56:25.903Z,100628.63
2023-03-12T17:58:53.844Z,100632.81
2023-03-12T18:01:21.774Z,100628.31
2023-03-12T18:03:51.255Z,100640.47
2023-03-12T18:06:20.592Z,100642.66
2023-03-12T18:08:48.497Z,100647.53
2023-03-12T18:11:16.671Z,100648.81
2023-03-12T18:13:44.585Z,100632.81
2023-03-12T18:16:12.599Z,100632.81
2023-03-12T18:18:40.573Z,100640.47
2023-03-12T18:21:08.531Z,100641.22
2023-03-12T18:23:37.832Z,100642.16
2023-03-12T18:26:06.135Z,100649.03
2023-03-12T18:28:34.031Z,100656.25
2023-03-12T18:31:02.002Z,100657.88
2023-03-12T18:33:30.791Z,100662.06
2023-03-12T18:35:58.864Z,100678.19
2023-03-12T18:38:26.881Z,100671.19
2023-03-12T18:41:03.384Z,100668.84
2023-03-12T18:43:31.552Z,100681.81
2023-03-12T18:45:59.473Z,100687.88
2023-03-12T18:48:27.523Z,100681.44
2023-03-12T18:50:55.683Z,100682.84
2023-03-12T18:53:23.620Z,100695.25
2023-03-12T18:55:53.014Z,100697.34
2023-03-12T18:58:22.645Z,100702.03
2023-03-12T19:00:52.362Z,100704.72
2023-03-12T19:03:20.738Z,100706.34
2023-03-12T19:05:48.667Z,100704.84
2023-03-12T19:08:17.124Z,100694.16
2023-03-12T19:10:46.096Z,100707.19
2023-03-12T19:13:14.034Z,100713.84
2023-03-12T19:15:43.859Z,100707.31
2023-03-12T19:18:11.774Z,100718.94
2023-03-12T19:20:39.890Z,100723.16
2023-03-12T19:23:07.854Z,100705.50
2023-03-12T19:25:35.772Z,100707.31
2023-03-12T19:28:03.663Z,100712.31
2023-03-12T19:30:33.116Z,100708.09
2023-03-12T19:33:02.491Z,100709.03
2023-03-12T19:35:30.643Z,100711.72
2023-03-12T19:37:59.618Z,100712.06
2023-03-12T19:40:27.588Z,100710.97
2023-03-12T19:42:55.527Z,100706.88
2023-03-12T19:45:23.431Z,100706.72
2023-03-12T19:47:52.246Z,100718.28
2023-03-12T19:50:21.657Z,100727.84
2023-03-12T19:52:49.585Z,100713.22
2023-03-12T19:55:17.801Z,100727.09
2023-03-12T19:57:45.774Z,100717.97
2023-03-12T20:00:14.957Z,100723.75
2023-03-12T20:02:43.123Z,100722.81
2023-03-12T20:05:11.495Z,100729.59
2023-03-12T20:07:41.427Z,100712.78
2023-03-12T20:10:11.020Z,100717.63
2023-03-12T20:12:39.470Z,100721.19
2023-03-12T20:15:08.390Z,100727.63
2023-03-12T20:17:36.422Z,100716.88
2023-03-12T20:20:05.868Z,100729.47
2023-03-12T20:22:36.303Z,100729.06
2023-03-12T20:25:06.852Z,100729.47
2023-03-12T20:27:35.330Z,100726.25
2023-03-12T20:30:04.186Z,100718.91
2023-03-12T20:32:32.153Z,100725.28
2023-03-12T20:35:00.163Z,100732.06
2023-03-12T20:37:28.094Z,100734.00
2023-03-12T20:39:56.156Z,100721.19
2023-03-12T20:42:25.461Z,100719.03
2023-03-12T20:44:53.396Z,100713.53
2023-03-12T20:47:21.272Z,100725.59
2023-03-12T20:49:49.305Z,100713.56
2023-03-12T20:52:17.216Z,100710.78
2023-03-12T20:54:45.141Z,100711.50
2023-03-12T20:57:13.043Z,100722.25
2023-03-12T20:59:42.376Z,100716.34
2023-03-12T21:02:13.923Z,100727.97
2023-03-12T21:04:42.981Z,100716.34
2023-03-12T21:07:11.024Z,100714.09
2023-03-12T21:09:38.951Z,100711.50
2023-03-12T21:12:07.114Z,100717.97
2023-03-12T21:14:35.018Z,100711.94
2023-03-12T21:17:04.593Z,100715.38
2023-03-12T21:19:32.513Z,100716.03
2023-03-12T21:22:00.480Z,100708.16
2023-03-12T21:24:28.372Z,100699.03
2023-03-12T21:26:56.299Z,100691.28
2023-03-12T21:29:24.220Z,100691.94
2023-03-12T21:31:53.836Z,100693.34
2023-03-12T21:34:23.620Z,100680.44
2023-03-12T21:36:51.674Z,100690.66
2023-03-12T21:39:19.630Z,100683.53
2023-03-12T21:41:47.519Z,100680.66
2023-03-12T21:44:16.667Z,100676.97
2023-03-12T21:46:44.823Z,100672.59
2023-03-12T21:49:14.200Z,100660.66
2023-03-12T21:51:43.514Z,100665.16
2023-03-12T21:54:11.725Z,100663.13
2023-03-12T21:56:41.759Z,100659.44
2023-03-12T21:59:10.569Z,100652.25
2023-03-12T22:01:38.608Z,100652.69
2023-03-12T22:04:06.621Z,100657.31
2023-03-12T22:06:34.578Z,100645.25
2023-03-12T22:09:04.107Z,100653.84
2023-03-12T22:11:32.092Z,100649.84
2023-03-12T22:14:00.011Z,100650.50
2023-03-12T22:16:28.000Z,100643.75
2023-03-12T22:18:56.090Z,100632.44
2023-03-12T22:21:24.800Z,100628.91
2023-03-12T22:23:54.338Z,100631.28
2023-03-12T22:26:25.480Z,100622.06
2023-03-12T22:28:54.795Z,100612.75
2023-03-12T22:31:24.530Z,100600.22
2023-03-12T22:33:52.851Z,100603.41
2023-03-12T22:36:21.438Z,100610.81
2023-03-12T22:38:49.509Z,100612.72
2023-03-12T22:41:19.327Z,100597.06
2023-03-12T22:43:49.306Z,100593.75
2023-03-12T22:46:18.566Z,100601.91
2023-03-12T22:48:47.688Z,100600.63
2023-03-12T22:51:15.576Z,100595.97
2023-03-12T22:53:43.512Z,100595.16
2023-03-12T22:56:12.716Z,100600.69
2023-03-12T22:58:41.068Z,100585.91
2023-03-12T23:01:11.983Z,100595.75
2023-03-12T23:03:41.820Z,100586.97
2023-03-12T23:06:10.711Z,100585.00
2023-03-12T23:08:39.239Z,100577.19
2023-03-12T23:11:08.017Z,100571.03
2023-03-12T23:13:37.215Z,100562.03
2023-03-12T23:16:06.076Z,100566.09
2023-03-12T23:18:36.382Z,100557.03
2023-03-12T23:21:06.833Z,100552.66
2023-03-12T23:23:35.528Z,100550.13
2023-03-12T23:26:04.173Z,100540.47
2023-03-12T23:28:32.509Z,100543.38
2023-03-12T23:31:02.638Z,100536.28
2023-03-12T23:33:31.836Z,100550.28
2023-03-12T23:36:03.530Z,100549.38
2023-03-12T23:38:32.522Z,100533.84
2023-03-12T23:41:01.901Z,100533.34
2023-03-12T23:43:30.081Z,100529.91
2023-03-12T23:45:58.781Z,100524.69
2023-03-12T23:48:26.982Z,100498.38
2023-03-12T23:50:54.915Z,100502.16
2023-03-12T23:53:24.212Z,100490.91
2023-03-12T23:56:02.526Z,100496.56
2023-03-12T23:58:30.598Z,100491.19
